sensor_id;sensor_type;location;lat;lon;timestamp;temperature;humidity
21047;DHT22;10682;50.874;3.656;2023-05-07T00:02:01;15.50;99.90
21047;DHT22;10682;50.874;3.656;2023-05-07T00:04:28;15.50;99.90
21047;DHT22;10682;50.874;3.656;2023-05-07T00:06:55;15.50;99.90
21047;DHT22;10682;50.874;3.656;2023-05-07T00:09:22;15.50;99.90
21047;DHT22;10682;50.874;3.656;2023-05-07T00:11:49;15.40;99.90
21047;DHT22;10682;50.874;3.656;2023-05-07T00:14:16;15.40;99.90
21047;DHT22;10682;50.874;3.656;2023-05-07T00:16:43;15.30;99.90
21047;DHT22;10682;50.874;3.656;2023-05-07T00:19:11;15.30;99.90
21047;DHT22;10682;50.874;3.656;2023-05-07T00:21:37;15.30;99.90
21047;DHT22;10682;50.874;3.656;2023-05-07T00:24:05;15.20;99.90
21047;DHT22;10682;50.874;3.656;2023-05-07T00:26:32;15.20;99.90
21047;DHT22;10682;50.874;3.656;2023-05-07T00:28:59;15.10;99.90
21047;DHT22;10682;50.874;3.656;2023-05-07T00:31:26;15.10;99.90
21047;DHT22;10682;50.874;3.656;2023-05-07T00:33:53;15.10;99.90
21047;DHT22;10682;50.874;3.656;2023-05-07T00:36:20;15.10;99.90
21047;DHT22;10682;50.874;3.656;2023-05-07T00:38:47;15.00;99.90
21047;DHT22;10682;50.874;3.656;2023-05-07T00:41:14;15.00;99.90
21047;DHT22;10682;50.874;3.656;2023-05-07T00:43:41;15.00;99.90
21047;DHT22;10682;50.874;3.656;2023-05-07T00:46:08;15.00;99.90
21047;DHT22;10682;50.874;3.656;2023-05-07T00:48:36;15.00;99.90
21047;DHT22;10682;50.874;3.656;2023-05-07T00:51:03;15.00;99.90
21047;DHT22;10682;50.874;3.656;2023-05-07T00:53:31;15.00;99.90
21047;DHT22;10682;50.874;3.656;2023-05-07T00:55:58;14.90;99.90
21047;DHT22;10682;50.874;3.656;2023-05-07T00:58:25;14.90;99.90
21047;DHT22;10682;50.874;3.656;2023-05-07T01:00:52;15.00;99.90
21047;DHT22;10682;50.874;3.656;2023-05-07T01:03:20;14.90;99.90
21047;DHT22;10682;50.874;3.656;2023-05-07T01:05:48;15.00;99.90
21047;DHT22;10682;50.874;3.656;2023-05-07T01:08:18;15.00;99.90
21047;DHT22;10682;50.874;3.656;2023-05-07T01:10:45;15.00;99.90
21047;DHT22;10682;50.874;3.656;2023-05-07T01:13:13;15.00;99.90
21047;DHT22;10682;50.874;3.656;2023-05-07T01:15:41;15.00;99.90
21047;DHT22;10682;50.874;3.656;2023-05-07T01:18:08;14.90;99.90
21047;DHT22;10682;50.874;3.656;2023-05-07T01:20:36;14.80;99.90
21047;DHT22;10682;50.874;3.656;2023-05-07T01:23:03;14.70;99.90
21047;DHT22;10682;50.874;3.656;2023-05-07T01:25:31;14.70;99.90
21047;DHT22;10682;50.874;3.656;2023-05-07T01:27:58;14.60;99.90
21047;DHT22;10682;50.874;3.656;2023-05-07T01:30:29;14.50;99.90
21047;DHT22;10682;50.874;3.656;2023-05-07T01:33:02;14.40;99.90
21047;DHT22;10682;50.874;3.656;2023-05-07T01:35:36;14.40;99.90
21047;DHT22;10682;50.874;3.656;2023-05-07T01:38:11;14.40;99.90
21047;DHT22;10682;50.874;3.656;2023-05-07T01:40:39;14.40;99.90
21047;DHT22;10682;50.874;3.656;2023-05-07T01:43:06;14.40;99.90
21047;DHT22;10682;50.874;3.656;2023-05-07T01:45:34;14.40;99.90
21047;DHT22;10682;50.874;3.656;2023-05-07T01:48:02;14.40;99.90
21047;DHT22;10682;50.874;3.656;2023-05-07T01:50:30;14.40;99.90
21047;DHT22;10682;50.874;3.656;2023-05-07T01:52:58;14.40;99.90
21047;DHT22;10682;50.874;3.656;2023-05-07T01:55:25;14.40;99.90
21047;DHT22;10682;50.874;3.656;2023-05-07T01:57:52;14.30;99.90
21047;DHT22;10682;50.874;3.656;2023-05-07T02:00:19;14.30;99.90
21047;DHT22;10682;50.874;3.656;2023-05-07T02:02:47;14.20;99.90
21047;DHT22;10682;50.874;3.656;2023-05-07T02:05:14;14.10;99.90
21047;DHT22;10682;50.874;3.656;2023-05-07T02:07:41;14.10;99.90
21047;DHT22;10682;50.874;3.656;2023-05-07T02:10:08;14.00;99.90
21047;DHT22;10682;50.874;3.656;2023-05-07T02:12:36;13.90;99.90
21047;DHT22;10682;50.874;3.656;2023-05-07T02:15:03;13.90;99.90
21047;DHT22;10682;50.874;3.656;2023-05-07T02:17:30;13.90;99.90
21047;DHT22;10682;50.874;3.656;2023-05-07T02:19:59;13.90;99.90
21047;DHT22;10682;50.874;3.656;2023-05-07T02:22:26;13.90;99.90
21047;DHT22;10682;50.874;3.656;2023-05-07T02:24:53;13.90;99.90
21047;DHT22;10682;50.874;3.656;2023-05-07T02:27:20;13.90;99.90
21047;DHT22;10682;50.874;3.656;2023-05-07T02:29:47;13.90;99.90
21047;DHT22;10682;50.874;3.656;2023-05-07T02:32:14;14.00;99.90
21047;DHT22;10682;50.874;3.656;2023-05-07T02:34:41;14.00;99.90
21047;DHT22;10682;50.874;3.656;2023-05-07T02:37:08;14.00;99.90
21047;DHT22;10682;50.874;3.656;2023-05-07T02:39:35;14.00;99.90
21047;DHT22;10682;50.874;3.656;2023-05-07T02:42:03;14.00;99.90
21047;DHT22;10682;50.874;3.656;2023-05-07T02:44:30;14.00;99.90
21047;DHT22;10682;50.874;3.656;2023-05-07T02:46:58;13.90;99.90
21047;DHT22;10682;50.874;3.656;2023-05-07T02:49:24;13.90;99.90
21047;DHT22;10682;50.874;3.656;2023-05-07T02:51:52;13.90;99.90
21047;DHT22;10682;50.874;3.656;2023-05-07T02:54:19;13.90;99.90
21047;DHT22;10682;50.874;3.656;2023-05-07T02:56:46;13.90;99.90
21047;DHT22;10682;50.874;3.656;2023-05-07T02:59:12;13.80;99.90
21047;DHT22;10682;50.874;3.656;2023-05-07T03:01:39;13.80;99.90
21047;DHT22;10682;50.874;3.656;2023-05-07T03:04:08;13.80;99.90
21047;DHT22;10682;50.874;3.656;2023-05-07T03:06:35;13.80;99.90
21047;DHT22;10682;50.874;3.656;2023-05-07T03:09:02;13.80;99.90
21047;DHT22;10682;50.874;3.656;2023-05-07T03:11:29;13.80;99.90
21047;DHT22;10682;50.874;3.656;2023-05-07T03:13:56;13.90;99.90
21047;DHT22;10682;50.874;3.656;2023-05-07T03:16:23;13.90;99.90
21047;DHT22;10682;50.874;3.656;2023-05-07T03:18:50;13.90;99.90
21047;DHT22;10682;50.874;3.656;2023-05-07T03:21:18;13.90;99.90
21047;DHT22;10682;50.874;3.656;2023-05-07T03:23:45;13.90;99.90
21047;DHT22;10682;50.874;3.656;2023-05-07T03:26:12;13.90;99.90
21047;DHT22;10682;50.874;3.656;2023-05-07T03:28:39;13.90;99.90
21047;DHT22;10682;50.874;3.656;2023-05-07T03:31:06;14.00;99.90
21047;DHT22;10682;50.874;3.656;2023-05-07T03:33:34;14.00;99.90
21047;DHT22;10682;50.874;3.656;2023-05-07T03:36:01;14.00;99.90
21047;DHT22;10682;50.874;3.656;2023-05-07T03:38:28;14.10;99.90
21047;DHT22;10682;50.874;3.656;2023-05-07T03:40:56;14.10;99.90
21047;DHT22;10682;50.874;3.656;2023-05-07T03:43:23;14.10;99.90
21047;DHT22;10682;50.874;3.656;2023-05-07T03:45:49;14.10;99.90
21047;DHT22;10682;50.874;3.656;2023-05-07T03:48:16;14.20;99.90
21047;DHT22;10682;50.874;3.656;2023-05-07T03:50:43;14.20;99.90
21047;DHT22;10682;50.874;3.656;2023-05-07T03:53:11;14.20;99.90
21047;DHT22;10682;50.874;3.656;2023-05-07T03:55:38;14.30;99.90
21047;DHT22;10682;50.874;3.656;2023-05-07T03:58:05;14.30;99.90
21047;DHT22;10682;50.874;3.656;2023-05-07T04:00:32;14.30;99.90
21047;DHT22;10682;50.874;3.656;2023-05-07T04:03:04;14.30;99.90
21047;DHT22;10682;50.874;3.656;2023-05-07T04:05:31;14.30;99.90
21047;DHT22;10682;50.874;3.656;2023-05-07T04:07:59;14.40;99.90
21047;DHT22;10682;50.874;3.656;2023-05-07T04:10:26;14.40;99.90
21047;DHT22;10682;50.874;3.656;2023-05-07T04:12:54;14.40;99.90
21047;DHT22;10682;50.874;3.656;2023-05-07T04:15:22;14.40;99.90
21047;DHT22;10682;50.874;3.656;2023-05-07T04:17:49;14.40;99.90
21047;DHT22;10682;50.874;3.656;2023-05-07T04:20:17;14.40;99.90
21047;DHT22;10682;50.874;3.656;2023-05-07T04:22:44;14.40;99.90
21047;DHT22;10682;50.874;3.656;2023-05-07T04:25:11;14.50;99.90
21047;DHT22;10682;50.874;3.656;2023-05-07T04:27:38;14.50;99.90
21047;DHT22;10682;50.874;3.656;2023-05-07T04:30:05;14.50;99.90
21047;DHT22;10682;50.874;3.656;2023-05-07T04:32:33;14.40;99.90
21047;DHT22;10682;50.874;3.656;2023-05-07T04:35:00;14.40;99.90
21047;DHT22;10682;50.874;3.656;2023-05-07T04:37:27;14.40;99.90
21047;DHT22;10682;50.874;3.656;2023-05-07T04:39:54;14.40;99.90
21047;DHT22;10682;50.874;3.656;2023-05-07T04:42:21;14.40;99.90
21047;DHT22;10682;50.874;3.656;2023-05-07T04:44:53;14.30;99.90
21047;DHT22;10682;50.874;3.656;2023-05-07T04:47:20;14.30;99.90
21047;DHT22;10682;50.874;3.656;2023-05-07T04:49:47;14.40;99.90
21047;DHT22;10682;50.874;3.656;2023-05-07T04:52:14;14.40;99.90
21047;DHT22;10682;50.874;3.656;2023-05-07T04:54:41;14.50;99.90
21047;DHT22;10682;50.874;3.656;2023-05-07T04:57:08;14.50;99.90
21047;DHT22;10682;50.874;3.656;2023-05-07T04:59:35;14.60;99.90
21047;DHT22;10682;50.874;3.656;2023-05-07T05:02:02;14.60;99.90
21047;DHT22;10682;50.874;3.656;2023-05-07T05:04:30;14.60;99.90
21047;DHT22;10682;50.874;3.656;2023-05-07T05:06:58;14.60;99.90
21047;DHT22;10682;50.874;3.656;2023-05-07T05:09:25;14.60;99.90
21047;DHT22;10682;50.874;3.656;2023-05-07T05:11:52;14.60;99.90
21047;DHT22;10682;50.874;3.656;2023-05-07T05:14:18;14.60;99.90
21047;DHT22;10682;50.874;3.656;2023-05-07T05:16:45;14.60;99.90
21047;DHT22;10682;50.874;3.656;2023-05-07T05:19:12;14.70;99.90
21047;DHT22;10682;50.874;3.656;2023-05-07T05:21:39;14.70;99.90
21047;DHT22;10682;50.874;3.656;2023-05-07T05:24:07;14.70;99.90
21047;DHT22;10682;50.874;3.656;2023-05-07T05:26:34;14.70;99.90
21047;DHT22;10682;50.874;3.656;2023-05-07T05:29:01;14.70;99.90
21047;DHT22;10682;50.874;3.656;2023-05-07T05:31:28;14.70;99.90
21047;DHT22;10682;50.874;3.656;2023-05-07T05:33:55;14.70;99.90
21047;DHT22;10682;50.874;3.656;2023-05-07T05:36:22;14.70;99.90
21047;DHT22;10682;50.874;3.656;2023-05-07T05:38:49;14.70;99.90
21047;DHT22;10682;50.874;3.656;2023-05-07T05:41:16;14.70;99.90
21047;DHT22;10682;50.874;3.656;2023-05-07T05:43:43;14.70;99.90
21047;DHT22;10682;50.874;3.656;2023-05-07T05:46:10;14.70;99.90
21047;DHT22;10682;50.874;3.656;2023-05-07T05:48:38;14.70;99.90
21047;DHT22;10682;50.874;3.656;2023-05-07T05:51:05;14.70;99.90
21047;DHT22;10682;50.874;3.656;2023-05-07T05:53:32;14.80;99.90
21047;DHT22;10682;50.874;3.656;2023-05-07T05:55:59;14.80;99.90
21047;DHT22;10682;50.874;3.656;2023-05-07T05:58:26;14.80;99.90
21047;DHT22;10682;50.874;3.656;2023-05-07T06:00:54;14.80;99.90
21047;DHT22;10682;50.874;3.656;2023-05-07T06:03:21;14.80;99.90
21047;DHT22;10682;50.874;3.656;2023-05-07T06:05:48;14.80;99.90
21047;DHT22;10682;50.874;3.656;2023-05-07T06:08:15;14.90;99.90
21047;DHT22;10682;50.874;3.656;2023-05-07T06:10:42;14.90;99.90
21047;DHT22;10682;50.874;3.656;2023-05-07T06:13:09;15.00;99.90
21047;DHT22;10682;50.874;3.656;2023-05-07T06:15:36;15.00;99.90
21047;DHT22;10682;50.874;3.656;2023-05-07T06:18:03;15.00;99.90
21047;DHT22;10682;50.874;3.656;2023-05-07T06:20:30;15.00;99.90
21047;DHT22;10682;50.874;3.656;2023-05-07T06:22:57;15.10;99.90
21047;DHT22;10682;50.874;3.656;2023-05-07T06:25:24;15.00;99.90
21047;DHT22;10682;50.874;3.656;2023-05-07T06:27:51;15.00;99.90
21047;DHT22;10682;50.874;3.656;2023-05-07T06:30:18;15.00;99.90
21047;DHT22;10682;50.874;3.656;2023-05-07T06:32:45;15.00;99.90
21047;DHT22;10682;50.874;3.656;2023-05-07T06:35:12;15.00;99.90
21047;DHT22;10682;50.874;3.656;2023-05-07T06:37:40;15.10;99.90
21047;DHT22;10682;50.874;3.656;2023-05-07T06:40:09;15.20;99.90
21047;DHT22;10682;50.874;3.656;2023-05-07T06:42:37;15.20;99.90
21047;DHT22;10682;50.874;3.656;2023-05-07T06:45:04;15.20;99.90
21047;DHT22;10682;50.874;3.656;2023-05-07T06:47:32;15.20;99.90
21047;DHT22;10682;50.874;3.656;2023-05-07T06:49:59;15.20;99.90
21047;DHT22;10682;50.874;3.656;2023-05-07T06:52:26;15.20;99.90
21047;DHT22;10682;50.874;3.656;2023-05-07T06:54:53;15.20;99.90
21047;DHT22;10682;50.874;3.656;2023-05-07T06:57:20;15.30;99.90
21047;DHT22;10682;50.874;3.656;2023-05-07T06:59:47;15.20;99.90
21047;DHT22;10682;50.874;3.656;2023-05-07T07:02:14;15.20;99.90
21047;DHT22;10682;50.874;3.656;2023-05-07T07:04:43;15.20;99.90
21047;DHT22;10682;50.874;3.656;2023-05-07T07:07:11;15.10;99.90
21047;DHT22;10682;50.874;3.656;2023-05-07T07:09:38;15.00;99.90
21047;DHT22;10682;50.874;3.656;2023-05-07T07:12:06;15.00;99.90
21047;DHT22;10682;50.874;3.656;2023-05-07T07:14:33;15.10;99.90
21047;DHT22;10682;50.874;3.656;2023-05-07T07:17:00;15.10;99.90
21047;DHT22;10682;50.874;3.656;2023-05-07T07:19:27;15.10;99.90
21047;DHT22;10682;50.874;3.656;2023-05-07T07:21:54;15.10;99.90
21047;DHT22;10682;50.874;3.656;2023-05-07T07:24:21;15.20;99.90
21047;DHT22;10682;50.874;3.656;2023-05-07T07:26:48;15.20;99.90
21047;DHT22;10682;50.874;3.656;2023-05-07T07:29:15;15.20;99.90
21047;DHT22;10682;50.874;3.656;2023-05-07T07:31:42;15.20;99.90
21047;DHT22;10682;50.874;3.656;2023-05-07T07:34:09;15.20;99.90
21047;DHT22;10682;50.874;3.656;2023-05-07T07:36:36;15.20;99.90
21047;DHT22;10682;50.874;3.656;2023-05-07T07:39:12;15.30;99.90
21047;DHT22;10682;50.874;3.656;2023-05-07T07:41:39;15.30;99.90
21047;DHT22;10682;50.874;3.656;2023-05-07T07:44:06;15.30;99.90
21047;DHT22;10682;50.874;3.656;2023-05-07T07:46:35;15.40;99.90
21047;DHT22;10682;50.874;3.656;2023-05-07T07:49:02;15.40;99.90
21047;DHT22;10682;50.874;3.656;2023-05-07T07:51:29;15.40;99.90
21047;DHT22;10682;50.874;3.656;2023-05-07T07:53:57;15.40;99.90
21047;DHT22;10682;50.874;3.656;2023-05-07T07:56:24;15.30;99.90
21047;DHT22;10682;50.874;3.656;2023-05-07T07:58:51;15.30;99.90
21047;DHT22;10682;50.874;3.656;2023-05-07T08:01:18;15.30;99.90
21047;DHT22;10682;50.874;3.656;2023-05-07T08:03:45;15.40;99.90
21047;DHT22;10682;50.874;3.656;2023-05-07T08:06:13;15.50;99.90
21047;DHT22;10682;50.874;3.656;2023-05-07T08:08:40;15.60;99.90
21047;DHT22;10682;50.874;3.656;2023-05-07T08:11:07;15.60;99.90
21047;DHT22;10682;50.874;3.656;2023-05-07T08:13:35;15.60;99.90
21047;DHT22;10682;50.874;3.656;2023-05-07T08:16:03;15.70;99.90
21047;DHT22;10682;50.874;3.656;2023-05-07T08:18:31;15.80;99.90
21047;DHT22;10682;50.874;3.656;2023-05-07T08:20:58;15.90;99.90
21047;DHT22;10682;50.874;3.656;2023-05-07T08:23:25;16.00;99.90
21047;DHT22;10682;50.874;3.656;2023-05-07T08:25:53;16.00;99.90
21047;DHT22;10682;50.874;3.656;2023-05-07T08:28:20;16.00;99.90
21047;DHT22;10682;50.874;3.656;2023-05-07T08:30:48;16.00;99.90
21047;DHT22;10682;50.874;3.656;2023-05-07T08:33:15;16.10;99.90
21047;DHT22;10682;50.874;3.656;2023-05-07T08:35:42;16.10;99.90
21047;DHT22;10682;50.874;3.656;2023-05-07T08:38:09;16.20;99.90
21047;DHT22;10682;50.874;3.656;2023-05-07T08:40:39;16.30;99.90
21047;DHT22;10682;50.874;3.656;2023-05-07T08:43:08;16.40;99.90
21047;DHT22;10682;50.874;3.656;2023-05-07T08:45:35;16.50;99.90
21047;DHT22;10682;50.874;3.656;2023-05-07T08:48:09;16.50;99.90
21047;DHT22;10682;50.874;3.656;2023-05-07T08:50:39;16.60;99.90
21047;DHT22;10682;50.874;3.656;2023-05-07T08:53:06;16.70;99.90
21047;DHT22;10682;50.874;3.656;2023-05-07T08:55:33;16.70;99.90
21047;DHT22;10682;50.874;3.656;2023-05-07T08:58:00;16.80;99.90
21047;DHT22;10682;50.874;3.656;2023-05-07T09:00:28;16.80;99.90
21047;DHT22;10682;50.874;3.656;2023-05-07T09:02:55;16.80;99.90
21047;DHT22;10682;50.874;3.656;2023-05-07T09:05:22;16.90;99.90
21047;DHT22;10682;50.874;3.656;2023-05-07T09:07:49;16.90;99.90
21047;DHT22;10682;50.874;3.656;2023-05-07T09:10:20;16.80;99.90
21047;DHT22;10682;50.874;3.656;2023-05-07T09:12:48;16.80;99.90
21047;DHT22;10682;50.874;3.656;2023-05-07T09:15:15;16.90;99.90
21047;DHT22;10682;50.874;3.656;2023-05-07T09:17:43;16.90;99.90
21047;DHT22;10682;50.874;3.656;2023-05-07T09:20:11;17.00;99.90
21047;DHT22;10682;50.874;3.656;2023-05-07T09:22:38;17.10;99.90
21047;DHT22;10682;50.874;3.656;2023-05-07T09:25:06;17.00;99.90
21047;DHT22;10682;50.874;3.656;2023-05-07T09:27:35;17.10;99.90
21047;DHT22;10682;50.874;3.656;2023-05-07T09:30:06;17.10;99.90
21047;DHT22;10682;50.874;3.656;2023-05-07T09:32:36;17.20;99.90
21047;DHT22;10682;50.874;3.656;2023-05-07T09:35:14;17.20;99.90
21047;DHT22;10682;50.874;3.656;2023-05-07T09:37:43;17.20;99.90
21047;DHT22;10682;50.874;3.656;2023-05-07T09:40:21;17.20;99.90
21047;DHT22;10682;50.874;3.656;2023-05-07T09:42:50;17.20;99.90
21047;DHT22;10682;50.874;3.656;2023-05-07T09:45:28;17.30;99.90
21047;DHT22;10682;50.874;3.656;2023-05-07T09:47:59;17.40;99.90
21047;DHT22;10682;50.874;3.656;2023-05-07T09:50:30;17.40;99.90
21047;DHT22;10682;50.874;3.656;2023-05-07T09:53:03;17.30;99.90
21047;DHT22;10682;50.874;3.656;2023-05-07T09:55:34;17.20;99.90
21047;DHT22;10682;50.874;3.656;2023-05-07T09:58:03;17.20;99.90
21047;DHT22;10682;50.874;3.656;2023-05-07T10:00:35;17.20;99.90
21047;DHT22;10682;50.874;3.656;2023-05-07T10:03:06;17.40;99.90
21047;DHT22;10682;50.874;3.656;2023-05-07T10:05:36;17.50;99.90
21047;DHT22;10682;50.874;3.656;2023-05-07T10:08:05;17.60;99.90
21047;DHT22;10682;50.874;3.656;2023-05-07T10:10:33;17.80;99.90
21047;DHT22;10682;50.874;3.656;2023-05-07T10:13:04;17.90;99.90
21047;DHT22;10682;50.874;3.656;2023-05-07T10:15:39;17.80;99.90
21047;DHT22;10682;50.874;3.656;2023-05-07T10:18:12;18.00;99.90
21047;DHT22;10682;50.874;3.656;2023-05-07T10:20:42;18.10;99.90
21047;DHT22;10682;50.874;3.656;2023-05-07T10:23:15;18.20;99.90
21047;DHT22;10682;50.874;3.656;2023-05-07T10:25:48;18.30;99.90
21047;DHT22;10682;50.874;3.656;2023-05-07T10:28:22;18.30;99.90
21047;DHT22;10682;50.874;3.656;2023-05-07T10:31:03;18.00;99.90
21047;DHT22;10682;50.874;3.656;2023-05-07T10:33:39;17.90;99.90
21047;DHT22;10682;50.874;3.656;2023-05-07T10:36:08;17.70;99.90
21047;DHT22;10682;50.874;3.656;2023-05-07T10:38:39;17.60;99.90
21047;DHT22;10682;50.874;3.656;2023-05-07T10:41:09;17.60;99.90
21047;DHT22;10682;50.874;3.656;2023-05-07T10:43:42;17.50;99.90
21047;DHT22;10682;50.874;3.656;2023-05-07T10:46:19;17.50;99.90
21047;DHT22;10682;50.874;3.656;2023-05-07T10:51:32;17.50;99.90
21047;DHT22;10682;50.874;3.656;2023-05-07T10:56:44;17.30;99.90
21047;DHT22;10682;50.874;3.656;2023-05-07T10:59:31;17.20;99.90
21047;DHT22;10682;50.874;3.656;2023-05-07T11:02:09;17.30;99.90
21047;DHT22;10682;50.874;3.656;2023-05-07T11:04:44;17.30;99.90
21047;DHT22;10682;50.874;3.656;2023-05-07T11:07:34;17.40;99.90
21047;DHT22;10682;50.874;3.656;2023-05-07T11:10:03;17.60;99.90
21047;DHT22;10682;50.874;3.656;2023-05-07T11:18:01;18.20;99.90
21047;DHT22;10682;50.874;3.656;2023-05-07T11:20:48;18.00;99.90
21047;DHT22;10682;50.874;3.656;2023-05-07T11:26:09;18.00;99.90
21047;DHT22;10682;50.874;3.656;2023-05-07T11:28:39;18.00;99.90
21047;DHT22;10682;50.874;3.656;2023-05-07T11:31:11;17.90;99.90
21047;DHT22;10682;50.874;3.656;2023-05-07T11:33:38;18.00;99.90
21047;DHT22;10682;50.874;3.656;2023-05-07T11:36:07;18.10;99.90
21047;DHT22;10682;50.874;3.656;2023-05-07T11:38:36;18.30;99.90
21047;DHT22;10682;50.874;3.656;2023-05-07T11:41:03;18.30;99.90
21047;DHT22;10682;50.874;3.656;2023-05-07T11:43:32;18.30;99.90
21047;DHT22;10682;50.874;3.656;2023-05-07T11:46:11;18.30;99.90
21047;DHT22;10682;50.874;3.656;2023-05-07T11:48:39;18.20;99.90
21047;DHT22;10682;50.874;3.656;2023-05-07T11:51:06;18.20;99.90
21047;DHT22;10682;50.874;3.656;2023-05-07T11:53:40;18.00;99.90
21047;DHT22;10682;50.874;3.656;2023-05-07T11:56:13;18.10;99.90
21047;DHT22;10682;50.874;3.656;2023-05-07T11:58:41;18.20;99.90
21047;DHT22;10682;50.874;3.656;2023-05-07T12:01:10;18.00;99.90
21047;DHT22;10682;50.874;3.656;2023-05-07T12:03:41;18.00;99.90
21047;DHT22;10682;50.874;3.656;2023-05-07T12:06:18;17.90;99.90
21047;DHT22;10682;50.874;3.656;2023-05-07T12:08:46;18.00;99.90
21047;DHT22;10682;50.874;3.656;2023-05-07T12:11:22;18.00;99.90
21047;DHT22;10682;50.874;3.656;2023-05-07T12:13:50;18.20;99.90
21047;DHT22;10682;50.874;3.656;2023-05-07T12:16:19;18.30;99.90
21047;DHT22;10682;50.874;3.656;2023-05-07T12:18:46;18.40;99.90
21047;DHT22;10682;50.874;3.656;2023-05-07T12:21:14;18.40;99.90
21047;DHT22;10682;50.874;3.656;2023-05-07T12:23:41;18.50;99.90
21047;DHT22;10682;50.874;3.656;2023-05-07T12:26:08;18.60;99.90
21047;DHT22;10682;50.874;3.656;2023-05-07T12:28:38;18.60;99.90
21047;DHT22;10682;50.874;3.656;2023-05-07T12:31:06;18.70;99.90
21047;DHT22;10682;50.874;3.656;2023-05-07T12:33:35;18.80;99.90
21047;DHT22;10682;50.874;3.656;2023-05-07T12:36:06;18.70;99.90
21047;DHT22;10682;50.874;3.656;2023-05-07T12:38:38;18.70;99.90
21047;DHT22;10682;50.874;3.656;2023-05-07T12:41:09;18.80;99.90
21047;DHT22;10682;50.874;3.656;2023-05-07T12:43:37;18.80;99.90
21047;DHT22;10682;50.874;3.656;2023-05-07T12:46:06;18.90;99.90
21047;DHT22;10682;50.874;3.656;2023-05-07T12:48:37;19.00;99.90
21047;DHT22;10682;50.874;3.656;2023-05-07T12:51:05;19.00;99.90
21047;DHT22;10682;50.874;3.656;2023-05-07T12:53:39;19.00;99.90
21047;DHT22;10682;50.874;3.656;2023-05-07T12:56:09;19.10;99.90
21047;DHT22;10682;50.874;3.656;2023-05-07T12:58:36;19.10;99.90
21047;DHT22;10682;50.874;3.656;2023-05-07T13:01:07;19.20;99.90
21047;DHT22;10682;50.874;3.656;2023-05-07T13:03:38;19.10;99.90
21047;DHT22;10682;50.874;3.656;2023-05-07T13:06:09;19.20;99.90
21047;DHT22;10682;50.874;3.656;2023-05-07T13:08:41;19.40;99.90
21047;DHT22;10682;50.874;3.656;2023-05-07T13:11:11;19.40;99.90
21047;DHT22;10682;50.874;3.656;2023-05-07T13:13:40;19.20;99.90
21047;DHT22;10682;50.874;3.656;2023-05-07T13:16:11;19.40;99.90
21047;DHT22;10682;50.874;3.656;2023-05-07T13:18:39;19.40;99.90
21047;DHT22;10682;50.874;3.656;2023-05-07T13:21:07;19.20;99.90
21047;DHT22;10682;50.874;3.656;2023-05-07T13:23:34;19.30;99.90
21047;DHT22;10682;50.874;3.656;2023-05-07T13:26:01;19.30;99.90
21047;DHT22;10682;50.874;3.656;2023-05-07T13:28:34;19.40;99.90
21047;DHT22;10682;50.874;3.656;2023-05-07T13:31:01;19.50;99.90
21047;DHT22;10682;50.874;3.656;2023-05-07T13:33:29;19.50;99.90
21047;DHT22;10682;50.874;3.656;2023-05-07T13:35:57;19.60;99.90
21047;DHT22;10682;50.874;3.656;2023-05-07T13:38:24;19.70;99.90
21047;DHT22;10682;50.874;3.656;2023-05-07T13:40:51;19.80;99.90
21047;DHT22;10682;50.874;3.656;2023-05-07T13:43:19;19.80;99.90
21047;DHT22;10682;50.874;3.656;2023-05-07T13:45:46;19.80;99.90
21047;DHT22;10682;50.874;3.656;2023-05-07T13:48:13;19.80;99.90
21047;DHT22;10682;50.874;3.656;2023-05-07T13:50:40;19.90;99.90
21047;DHT22;10682;50.874;3.656;2023-05-07T13:53:08;20.00;99.90
21047;DHT22;10682;50.874;3.656;2023-05-07T13:55:35;20.00;99.90
21047;DHT22;10682;50.874;3.656;2023-05-07T13:58:02;20.10;99.90
21047;DHT22;10682;50.874;3.656;2023-05-07T14:00:32;20.00;99.90
21047;DHT22;10682;50.874;3.656;2023-05-07T14:03:02;19.90;99.90
21047;DHT22;10682;50.874;3.656;2023-05-07T14:05:32;20.00;99.90
21047;DHT22;10682;50.874;3.656;2023-05-07T14:08:02;20.00;99.90
21047;DHT22;10682;50.874;3.656;2023-05-07T14:10:32;19.90;99.90
21047;DHT22;10682;50.874;3.656;2023-05-07T14:13:01;19.80;99.90
21047;DHT22;10682;50.874;3.656;2023-05-07T14:15:28;19.80;99.90
21047;DHT22;10682;50.874;3.656;2023-05-07T14:17:56;19.80;99.90
21047;DHT22;10682;50.874;3.656;2023-05-07T14:20:25;19.60;99.90
21047;DHT22;10682;50.874;3.656;2023-05-07T14:22:54;19.50;99.90
21047;DHT22;10682;50.874;3.656;2023-05-07T14:25:23;19.40;99.90
21047;DHT22;10682;50.874;3.656;2023-05-07T14:27:53;19.50;99.90
21047;DHT22;10682;50.874;3.656;2023-05-07T14:30:21;19.40;99.90
21047;DHT22;10682;50.874;3.656;2023-05-07T14:32:51;19.60;99.90
21047;DHT22;10682;50.874;3.656;2023-05-07T14:35:21;19.60;99.90
21047;DHT22;10682;50.874;3.656;2023-05-07T14:37:48;19.60;99.90
21047;DHT22;10682;50.874;3.656;2023-05-07T14:40:15;19.70;99.90
21047;DHT22;10682;50.874;3.656;2023-05-07T14:42:42;19.60;99.90
21047;DHT22;10682;50.874;3.656;2023-05-07T14:45:09;19.60;99.90
21047;DHT22;10682;50.874;3.656;2023-05-07T14:47:37;19.70;99.90
21047;DHT22;10682;50.874;3.656;2023-05-07T14:50:05;19.80;99.90
21047;DHT22;10682;50.874;3.656;2023-05-07T14:52:32;19.70;99.90
21047;DHT22;10682;50.874;3.656;2023-05-07T14:55:00;19.80;99.90
21047;DHT22;10682;50.874;3.656;2023-05-07T14:57:27;19.80;99.90
21047;DHT22;10682;50.874;3.656;2023-05-07T14:59:58;19.80;99.90
21047;DHT22;10682;50.874;3.656;2023-05-07T15:02:25;19.80;99.90
21047;DHT22;10682;50.874;3.656;2023-05-07T15:04:53;19.70;99.90
21047;DHT22;10682;50.874;3.656;2023-05-07T15:07:20;19.60;99.90
21047;DHT22;10682;50.874;3.656;2023-05-07T15:09:46;19.50;99.90
21047;DHT22;10682;50.874;3.656;2023-05-07T15:12:14;19.50;99.90
21047;DHT22;10682;50.874;3.656;2023-05-07T15:14:41;19.40;99.90
21047;DHT22;10682;50.874;3.656;2023-05-07T15:17:08;19.30;99.90
21047;DHT22;10682;50.874;3.656;2023-05-07T15:19:35;19.30;99.90
21047;DHT22;10682;50.874;3.656;2023-05-07T15:22:02;19.30;99.90
21047;DHT22;10682;50.874;3.656;2023-05-07T15:24:29;19.20;99.90
21047;DHT22;10682;50.874;3.656;2023-05-07T15:26:57;19.30;99.90
21047;DHT22;10682;50.874;3.656;2023-05-07T15:29:24;19.30;99.90
21047;DHT22;10682;50.874;3.656;2023-05-07T15:31:54;19.40;99.90
21047;DHT22;10682;50.874;3.656;2023-05-07T15:34:22;19.50;99.90
21047;DHT22;10682;50.874;3.656;2023-05-07T15:36:50;19.50;99.90
21047;DHT22;10682;50.874;3.656;2023-05-07T15:39:17;19.50;99.90
21047;DHT22;10682;50.874;3.656;2023-05-07T15:41:44;19.50;99.90
21047;DHT22;10682;50.874;3.656;2023-05-07T15:44:11;19.60;99.90
21047;DHT22;10682;50.874;3.656;2023-05-07T15:46:38;19.60;99.90
21047;DHT22;10682;50.874;3.656;2023-05-07T15:49:05;19.50;99.90
21047;DHT22;10682;50.874;3.656;2023-05-07T15:51:35;19.60;99.90